North Pole, AK

6:13 AM AKDT on September 03, 2015 (GMT -0800)
Woodsmoke | | Change Station
CLOSE
Current Station
Personal Weather Station
Location: North Pole, AK
Elevation: 476 ft
Nearby Weather Stations

Elev 476 ft 64.78 °N, 147.28 °W | Updated 3 minutes ago

Overcast
Overcast
41.1 °F
Feels Like 41 °F
N
0.0
Wind Variable Wind from North
Gusts 1.0 mph

Today
High -- | Low -- °F
--% Chance of Precip.
Yesterday
High -- | Low -- °F
Precip. -- in
6:35 AM 8:59 PM
Waning Gibbous, 70% visible
Pressure 29.97 in
Visibility 9.0 miles
Clouds Mostly Cloudy 13000 ft
Mostly Cloudy 16000 ft
Overcast 18000 ft
Windchill 41 °F
Dew Point 38 °F
Humidity 90%
Rainfall 0.00 in
Snow Depth Not available.
UV 0.0 out of 12
Pollen Not available.
Air Quality Not available.
Flu Activity Not available.
METAR PAFB 031358Z AUTO 07009KT 9SM R25R/5500FT BKN130 BKN160 OVC180 07/04 A2996 RMK AO2 SLP149 T00700035 $
Pressure 29.97 in
Visibility 9.0 miles
Clouds Mostly Cloudy 13000 ft
Mostly Cloudy 16000 ft
Overcast 18000 ft
Windchill 41 °F
Dew Point 38 °F
Humidity 90%
Rainfall 0.00 in
Snow Depth Not available.
UV 0.0 out of 12
Pollen Not available.
Air Quality Not available.
Flu Activity Not available.
METAR PAFB 031358Z AUTO 07009KT 9SM R25R/5500FT BKN130 BKN160 OVC180 07/04 A2996 RMK AO2 SLP149 T00700035 $

10-Day Weather Forecast

×

Almanac

Astronomy

Sep. 03, 2015 Rise Set
Actual Time
Civil Twilight
Nautical Twilight
Astronomical Twilight
Moon
Length of Visible Light
Length of Day
Tomorrow will be .
, % of the Moon is Illuminated

Today's Extremes

State Highs State Lows

Community

WunderPhotos

Upload Photos

1,851,959 photos uploaded!

WunderBlogs® & News

Nearby

Air Quality

  Air Quality AQ Index Pollutant
Not available.

Snow Depth

Station Depth Elevation

Earthquake Activity

City Distance Mag. Time & Date
Minimum magnitude displayed is 2.5.

Coastal Water Temperatures

Place Temperature

Stations

Nearby Weather Stations

Station Location Temp. Windchill Dew Point Humidity Wind Precip. Elev Updated Type